Time;durP1;ratioP1;P1;durP2;ratioP2;P2;SDS_P1;SDS_P2;PMS_P1;PMS_P2;Temp;Humidity;BMP_temperature;BMP_pressure;BME280_temperature;BME280_humidity;BME280_pressure;Samples;Min_cycle;Max_cycle;Signal;HPM_P1;HPM_P2
2023/09/14 00:00:13;;;;;;;10.35;3.00;;;22.00;94.50;;;;;;5069833;28;20032;-54
2023/09/14 00:02:39;;;;;;;13.40;3.38;;;21.90;94.50;;;;;;5087347;28;20082;-54
2023/09/14 00:05:05;;;;;;;7.22;2.90;;;21.90;94.50;;;;;;5069598;28;20080;-54
2023/09/14 00:07:32;;;;;;;9.02;3.33;;;21.90;94.50;;;;;;5087716;28;20043;-55
2023/09/14 00:09:58;;;;;;;12.27;3.35;;;21.90;94.50;;;;;;5069457;28;20055;-55
2023/09/14 00:12:23;;;;;;;12.80;3.13;;;21.90;94.50;;;;;;5069423;28;20043;-54
2023/09/14 00:14:49;;;;;;;7.53;2.85;;;21.90;94.50;;;;;;5069585;28;20036;-54
2023/09/14 00:17:14;;;;;;;9.63;2.60;;;21.90;94.50;;;;;;5068907;28;20032;-54
2023/09/14 00:19:40;;;;;;;11.20;3.30;;;21.90;94.50;;;;;;5069492;28;20028;-55
2023/09/14 00:22:05;;;;;;;13.27;3.38;;;21.90;94.50;;;;;;5087033;28;20461;-54
2023/09/14 00:24:31;;;;;;;10.55;3.00;;;21.90;94.50;;;;;;5052382;28;20055;-54
2023/09/14 00:26:56;;;;;;;8.35;2.60;;;21.90;94.50;;;;;;5068071;28;20492;-55
2023/09/14 00:29:22;;;;;;;7.47;3.03;;;21.90;94.50;;;;;;5069149;28;20047;-54
2023/09/14 00:31:48;;;;;;;6.97;2.88;;;21.80;94.50;;;;;;5086794;28;20144;-54
2023/09/14 00:34:13;;;;;;;7.65;2.67;;;21.80;94.50;;;;;;5069189;28;20513;-54
2023/09/14 00:36:39;;;;;;;7.57;3.03;;;21.90;94.50;;;;;;5068949;28;20393;-54
2023/09/14 00:39:05;;;;;;;7.55;2.53;;;21.90;94.50;;;;;;5086819;28;20041;-55
2023/09/14 00:41:31;;;;;;;8.45;2.83;;;21.90;94.50;;;;;;5068839;28;20468;-54
2023/09/14 00:43:57;;;;;;;8.48;2.33;;;21.80;94.50;;;;;;5086861;28;20178;-54
2023/09/14 00:46:22;;;;;;;7.93;2.55;;;21.80;94.50;;;;;;5068755;28;20107;-54
2023/09/14 00:48:48;;;;;;;5.43;2.50;;;21.80;94.50;;;;;;5068703;28;20045;-54
2023/09/14 00:51:13;;;;;;;8.80;2.58;;;21.80;94.50;;;;;;5068497;28;20048;-54
2023/09/14 00:53:39;;;;;;;9.68;2.90;;;21.80;94.50;;;;;;5068677;28;20036;-54
2023/09/14 00:56:06;;;;;;;7.05;2.50;;;21.80;94.50;;;;;;5068738;28;20036;-54
2023/09/14 00:58:31;;;;;;;8.10;2.38;;;21.80;94.50;;;;;;5068716;28;20047;-55
2023/09/14 01:00:57;;;;;;;7.57;2.55;;;21.80;94.50;;;;;;5068714;28;20037;-54
2023/09/14 01:03:24;;;;;;;7.78;2.60;;;21.70;94.40;;;;;;5069004;28;20033;-54
2023/09/14 01:05:49;;;;;;;11.02;2.85;;;21.70;94.40;;;;;;5051984;28;20052;-55
2023/09/14 01:08:15;;;;;;;9.43;2.53;;;21.80;94.50;;;;;;5068205;28;20040;-54
2023/09/14 01:10:41;;;;;;;6.20;2.05;;;21.80;94.40;;;;;;5068235;28;20086;-54
2023/09/14 01:13:08;;;;;;;7.93;2.10;;;21.80;94.40;;;;;;5067615;28;20033;-54
2023/09/14 01:16:15;;;;;;;4.45;2.33;;;21.80;94.40;;;;;;5066538;28;20035;-54
2023/09/14 01:18:51;;;;;;;;;;;21.70;94.40;;;;;;5058560;28;20065;-54
2023/09/14 01:21:30;;;;;;;5.60;2.30;;;21.80;94.40;;;;;;5066119;28;20455;-55
2023/09/14 01:24:09;;;;;;;4.35;1.83;;;21.80;94.40;;;;;;5066241;28;20075;-55
2023/09/14 01:26:35;;;;;;;5.72;2.25;;;21.70;94.40;;;;;;5066445;28;20033;-54
2023/09/14 01:29:04;;;;;;;4.80;2.10;;;21.70;94.40;;;;;;5067087;28;20056;-54
2023/09/14 01:31:30;;;;;;;7.88;2.35;;;21.70;94.40;;;;;;5068171;28;20043;-54
2023/09/14 01:33:55;;;;;;;5.70;2.17;;;21.70;94.40;;;;;;5085235;28;20036;-54
2023/09/14 01:36:46;;;;;;;7.80;2.20;;;21.60;94.40;;;;;;5068172;28;20077;-55
2023/09/14 01:39:11;;;;;;;3.28;2.10;;;21.70;94.40;;;;;;5055618;28;20067;-54
2023/09/14 01:41:37;;;;;;;6.38;2.15;;;21.70;94.40;;;;;;5062529;28;20037;-55
2023/09/14 01:44:03;;;;;;;8.20;2.70;;;21.70;94.40;;;;;;5051751;28;20037;-54
2023/09/14 01:46:28;;;;;;;6.40;2.03;;;21.70;94.40;;;;;;5052274;28;20033;-54
2023/09/14 01:48:54;;;;;;;7.03;2.35;;;21.60;94.40;;;;;;5051998;28;20056;-55
2023/09/14 01:51:19;;;;;;;6.38;2.20;;;21.60;94.70;;;;;;5058319;28;20034;-55
2023/09/14 01:53:45;;;;;;;4.50;1.90;;;21.60;94.50;;;;;;5072186;28;20048;-54
2023/09/14 01:56:10;;;;;;;5.60;1.98;;;21.60;94.40;;;;;;5072068;28;20036;-54
2023/09/14 01:58:36;;;;;;;6.22;2.15;;;21.60;94.40;;;;;;5088390;28;20392;-54
2023/09/14 02:01:02;;;;;;;4.30;1.85;;;21.60;94.70;;;;;;5071974;28;20458;-54
2023/09/14 02:03:27;;;;;;;6.25;2.00;;;21.60;94.40;;;;;;5072295;28;20032;-54
2023/09/14 02:05:58;;;;;;;6.03;2.05;;;21.60;94.50;;;;;;5070829;28;20049;-55
2023/09/14 02:08:24;;;;;;;4.80;1.90;;;21.60;94.50;;;;;;5089850;28;20040;-54
2023/09/14 02:10:50;;;;;;;5.75;1.75;;;21.60;94.50;;;;;;5055097;28;20024;-54
2023/09/14 02:13:15;;;;;;;5.20;1.90;;;21.50;94.40;;;;;;5070495;28;20056;-54
2023/09/14 02:15:41;;;;;;;3.50;1.90;;;21.50;94.40;;;;;;5089681;28;20028;-54
2023/09/14 02:18:07;;;;;;;5.18;1.92;;;21.50;94.40;;;;;;5054771;28;20068;-54
2023/09/14 02:20:35;;;;;;;7.30;2.00;;;21.50;94.40;;;;;;5070773;28;20051;-54
2023/09/14 02:23:03;;;;;;;5.35;1.70;;;21.50;94.40;;;;;;5089635;28;20035;-54
2023/09/14 02:25:29;;;;;;;5.00;1.80;;;21.50;94.40;;;;;;5071257;28;20040;-54
2023/09/14 02:27:54;;;;;;;3.97;1.70;;;21.50;94.40;;;;;;5088081;28;20040;-55
2023/09/14 02:30:20;;;;;;;3.75;2.22;;;21.50;94.40;;;;;;5054940;28;20471;-54
2023/09/14 02:32:45;;;;;;;5.65;2.08;;;21.50;94.40;;;;;;5089350;28;20036;-54
2023/09/14 02:35:11;;;;;;;2.78;1.90;;;21.50;94.40;;;;;;5088207;28;20094;-54
2023/09/14 02:37:36;;;;;;;5.38;1.73;;;21.50;94.40;;;;;;5071637;28;20059;-54
2023/09/14 02:40:06;;;;;;;6.60;1.85;;;21.50;94.40;;;;;;5071067;28;20048;-55
2023/09/14 02:42:32;;;;;;;3.58;1.98;;;21.40;94.40;;;;;;5066404;28;20033;-55
2023/09/14 02:44:57;;;;;;;4.63;1.80;;;21.50;94.40;;;;;;5067883;28;20116;-54
2023/09/14 02:47:23;;;;;;;3.22;1.70;;;21.40;94.40;;;;;;5068872;28;20272;-54
2023/09/14 02:49:48;;;;;;;3.45;1.90;;;21.40;94.40;;;;;;5064395;28;20060;-55
2023/09/14 02:52:14;;;;;;;3.30;1.85;;;21.40;94.40;;;;;;5068921;28;20096;-54
2023/09/14 02:54:39;;;;;;;5.45;2.50;;;21.40;94.40;;;;;;5067795;28;20044;-54
2023/09/14 02:57:05;;;;;;;4.65;2.40;;;21.40;94.40;;;;;;5082038;28;20033;-55
2023/09/14 02:59:31;;;;;;;5.18;2.45;;;21.40;94.40;;;;;;5070879;28;20040;-54
2023/09/14 03:01:57;;;;;;;5.60;2.30;;;21.40;94.50;;;;;;5088743;28;20036;-54
2023/09/14 03:04:22;;;;;;;3.30;2.20;;;21.40;94.50;;;;;;5053039;28;20032;-55
2023/09/14 03:06:48;;;;;;;6.57;2.13;;;21.40;94.40;;;;;;5070422;28;20036;-54
2023/09/14 03:09:13;;;;;;;3.65;2.03;;;21.40;94.50;;;;;;5088363;28;20433;-54
2023/09/14 03:11:39;;;;;;;5.47;1.60;;;21.30;94.40;;;;;;5069372;28;20397;-54
2023/09/14 03:14:04;;;;;;;6.38;2.22;;;21.40;94.50;;;;;;5070348;28;20503;-54
2023/09/14 03:16:30;;;;;;;6.32;1.90;;;21.40;94.50;;;;;;5086344;28;20082;-54
2023/09/14 03:18:56;;;;;;;6.55;2.08;;;21.30;94.30;;;;;;5069242;28;20071;-54
2023/09/14 03:21:30;;;;;;;2.55;1.80;;;21.30;94.40;;;;;;5070983;28;20033;-54
2023/09/14 03:23:56;;;;;;;6.13;2.13;;;21.30;94.30;;;;;;5089243;28;20067;-55
2023/09/14 03:26:23;;;;;;;7.80;2.05;;;21.30;94.30;;;;;;5070051;28;20029;-54
2023/09/14 03:28:49;;;;;;;2.70;1.98;;;21.30;94.40;;;;;;5071061;28;20036;-54
2023/09/14 03:31:14;;;;;;;2.22;1.88;;;21.30;94.40;;;;;;5071710;28;20060;-54
2023/09/14 03:33:40;;;;;;;4.80;2.40;;;21.20;94.40;;;;;;5069498;28;20083;-54
2023/09/14 03:36:05;;;;;;;2.42;1.85;;;21.30;94.40;;;;;;5054268;28;20044;-55
2023/09/14 03:38:31;;;;;;;4.50;2.40;;;21.20;94.50;;;;;;5070685;28;20063;-54
2023/09/14 03:40:57;;;;;;;4.05;2.10;;;21.20;94.50;;;;;;5049230;28;20041;-55
2023/09/14 03:43:22;;;;;;;4.30;2.45;;;21.20;94.50;;;;;;5068574;28;20045;-54
2023/09/14 03:45:48;;;;;;;3.53;2.10;;;21.20;94.50;;;;;;5050865;28;20033;-54
2023/09/14 03:48:13;;;;;;;5.25;2.38;;;21.20;94.50;;;;;;5086048;28;20055;-54
2023/09/14 03:50:39;;;;;;;4.68;2.03;;;21.20;94.50;;;;;;5069832;28;20067;-54
2023/09/14 03:53:05;;;;;;;5.15;2.30;;;21.20;94.50;;;;;;5069775;28;20040;-54
2023/09/14 03:55:30;;;;;;;3.92;2.40;;;21.20;94.60;;;;;;5050268;28;20100;-54
2023/09/14 03:57:56;;;;;;;5.13;2.47;;;21.20;94.60;;;;;;5048776;28;20109;-54
2023/09/14 04:00:22;;;;;;;4.45;2.42;;;21.10;94.50;;;;;;5033080;28;20036;-55
2023/09/14 04:02:48;;;;;;;3.10;2.17;;;21.10;94.60;;;;;;5049664;28;20053;-54
2023/09/14 04:05:17;;;;;;;4.13;2.67;;;21.20;94.60;;;;;;5032964;28;20037;-54
2023/09/14 04:07:46;;;;;;;4.53;2.63;;;21.10;94.60;;;;;;5063375;28;20040;-54
2023/09/14 04:10:11;;;;;;;6.78;3.65;;;21.10;94.60;;;;;;5069644;28;20036;-54
2023/09/14 04:12:38;;;;;;;8.70;3.80;;;21.10;94.60;;;;;;5069548;28;20044;-54
2023/09/14 04:15:04;;;;;;;5.80;3.22;;;21.10;94.60;;;;;;5086030;28;20075;-54
2023/09/14 04:17:29;;;;;;;8.48;3.90;;;21.10;94.60;;;;;;5045639;28;20040;-54
2023/09/14 04:19:55;;;;;;;5.93;3.35;;;21.10;94.60;;;;;;5064602;28;20173;-54
2023/09/14 04:22:20;;;;;;;8.07;3.85;;;21.10;94.60;;;;;;5066848;28;20040;-54
2023/09/14 04:24:46;;;;;;;9.93;3.75;;;21.10;94.70;;;;;;5079583;28;20063;-54
2023/09/14 04:27:11;;;;;;;10.30;3.80;;;21.10;94.70;;;;;;5066716;28;20048;-54
2023/09/14 04:29:37;;;;;;;7.00;3.10;;;21.10;94.70;;;;;;5030866;28;20064;-54
2023/09/14 04:32:04;;;;;;;22.92;4.97;;;21.10;94.70;;;;;;5066588;28;20033;-54
2023/09/14 04:34:29;;;;;;;17.48;4.90;;;21.10;94.70;;;;;;5065548;28;20041;-54
2023/09/14 04:36:55;;;;;;;14.57;4.40;;;21.00;94.70;;;;;;5049275;28;20564;-54
2023/09/14 04:39:20;;;;;;;19.77;4.90;;;21.00;94.80;;;;;;5049135;28;20477;-55
2023/09/14 04:41:46;;;;;;;18.45;5.22;;;21.00;94.70;;;;;;5048978;28;20029;-54
2023/09/14 04:44:12;;;;;;;21.80;5.22;;;21.00;94.70;;;;;;5048952;28;20088;-54
2023/09/14 04:46:37;;;;;;;15.00;5.53;;;21.00;94.70;;;;;;5066548;28;20420;-54
2023/09/14 04:49:03;;;;;;;34.67;6.85;;;21.00;94.70;;;;;;5048620;28;20045;-54
2023/09/14 04:51:28;;;;;;;30.83;6.45;;;21.00;94.80;;;;;;5032265;28;20499;-54
2023/09/14 04:53:54;;;;;;;47.78;9.38;;;21.00;94.90;;;;;;5048509;28;20041;-54
2023/09/14 04:56:19;;;;;;;31.92;7.15;;;21.00;95.00;;;;;;5048439;28;20037;-54
2023/09/14 04:58:45;;;;;;;29.42;7.10;;;21.00;95.00;;;;;;5048426;28;20093;-54
2023/09/14 05:01:11;;;;;;;36.00;6.25;;;20.90;95.00;;;;;;5048724;28;20029;-54
2023/09/14 05:03:36;;;;;;;35.90;7.03;;;20.90;94.90;;;;;;5065965;28;20029;-54
2023/09/14 05:06:04;;;;;;;23.33;5.80;;;20.90;94.90;;;;;;5068007;28;20040;-54
2023/09/14 05:08:30;;;;;;;42.38;6.68;;;20.90;95.00;;;;;;5084905;28;20042;-54
2023/09/14 05:10:56;;;;;;;32.53;6.57;;;20.90;95.00;;;;;;5051025;28;20074;-54
2023/09/14 05:13:21;;;;;;;36.25;6.20;;;20.90;95.00;;;;;;5085544;28;20167;-54
2023/09/14 05:15:47;;;;;;;40.80;6.95;;;20.90;95.10;;;;;;5068297;28;20078;-54
2023/09/14 05:18:13;;;;;;;28.77;5.90;;;20.90;95.20;;;;;;5068284;28;20040;-58
2023/09/14 05:20:47;;;;;;;45.22;6.45;;;20.90;95.20;;;;;;5068304;28;20036;-58
2023/09/14 05:23:12;;;;;;;58.92;7.50;;;20.80;95.30;;;;;;5067941;28;20548;-58
2023/09/14 05:25:38;;;;;;;38.17;6.78;;;20.90;95.40;;;;;;5051669;28;20035;-58
2023/09/14 05:28:04;;;;;;;56.13;8.57;;;20.80;95.30;;;;;;5068211;28;20104;-58
2023/09/14 05:30:32;;;;;;;39.17;7.82;;;20.80;95.30;;;;;;5051648;28;20044;-58
2023/09/14 05:32:57;;;;;;;40.22;8.00;;;20.80;95.30;;;;;;5085851;28;20092;-58
2023/09/14 05:35:23;;;;;;;34.25;6.90;;;20.80;95.40;;;;;;5051451;28;20558;-58
2023/09/14 05:37:49;;;;;;;45.25;8.25;;;20.80;95.30;;;;;;5051151;28;20037;-58
2023/09/14 05:40:14;;;;;;;50.35;8.32;;;20.80;95.40;;;;;;5067964;28;20028;-58
2023/09/14 05:42:41;;;;;;;48.70;7.75;;;20.80;95.40;;;;;;5051500;28;20037;-57
2023/09/14 05:45:07;;;;;;;32.92;7.78;;;20.80;95.40;;;;;;5051554;28;20058;-58
2023/09/14 05:47:33;;;;;;;44.10;7.18;;;20.80;95.50;;;;;;5086037;28;20032;-57
2023/09/14 05:49:58;;;;;;;42.35;7.20;;;20.80;95.60;;;;;;5050993;28;20049;-58
2023/09/14 05:52:24;;;;;;;38.53;7.95;;;20.80;95.50;;;;;;5085884;28;20083;-58
2023/09/14 05:54:50;;;;;;;40.58;8.38;;;20.80;95.60;;;;;;5051491;28;20024;-58
2023/09/14 05:57:16;;;;;;;31.00;7.35;;;20.80;95.60;;;;;;5085801;28;20040;-58
2023/09/14 05:59:42;;;;;;;38.95;7.93;;;20.80;95.60;;;;;;5051097;28;20036;-58
2023/09/14 06:02:08;;;;;;;45.47;7.95;;;20.80;95.60;;;;;;5061382;28;20034;-58
2023/09/14 06:04:33;;;;;;;46.30;8.80;;;20.80;95.60;;;;;;5065920;28;20540;-58
2023/09/14 06:06:59;;;;;;;52.22;8.52;;;20.80;95.70;;;;;;5066401;28;20044;-58
2023/09/14 06:09:29;;;;;;;40.45;8.45;;;20.80;95.80;;;;;;5067685;28;20060;-58
2023/09/14 06:11:55;;;;;;;31.38;8.27;;;20.80;95.90;;;;;;5076959;28;20055;-58
2023/09/14 06:14:20;;;;;;;54.03;9.63;;;20.80;95.90;;;;;;5070273;28;20060;-58
2023/09/14 06:16:46;;;;;;;38.00;8.52;;;20.70;96.10;;;;;;5058925;28;20032;-58
2023/09/14 06:19:12;;;;;;;41.63;8.10;;;20.70;96.10;;;;;;5046886;28;20039;-58
2023/09/14 06:21:37;;;;;;;41.33;8.20;;;20.70;96.30;;;;;;5082729;28;20052;-58
2023/09/14 06:24:03;;;;;;;44.03;8.73;;;20.60;96.40;;;;;;5062065;28;20104;-58
2023/09/14 06:26:29;;;;;;;36.65;7.75;;;20.60;96.30;;;;;;5077098;28;21813;-58
2023/09/14 06:28:55;;;;;;;43.88;7.47;;;20.60;96.30;;;;;;5048021;28;20048;-58
2023/09/14 06:31:22;;;;;;;41.33;8.38;;;20.60;96.80;;;;;;5042640;28;20075;-58
2023/09/14 06:33:49;;;;;;;41.50;7.75;;;20.60;96.50;;;;;;5062989;28;20045;-58
2023/09/14 06:36:17;;;;;;;30.60;7.35;;;20.60;96.50;;;;;;5067339;28;20037;-58
2023/09/14 06:38:42;;;;;;;26.50;7.47;;;20.70;96.50;;;;;;5083101;28;20068;-57
2023/09/14 06:41:08;;;;;;;29.92;7.35;;;20.60;96.50;;;;;;5063676;28;20036;-58
2023/09/14 06:43:33;;;;;;;32.55;7.07;;;20.60;96.50;;;;;;5082043;28;20045;-58
2023/09/14 06:45:59;;;;;;;45.95;6.90;;;20.70;96.50;;;;;;5083390;28;20123;-57
2023/09/14 06:48:24;;;;;;;27.27;6.75;;;20.70;96.50;;;;;;5050223;28;20044;-58
2023/09/14 06:50:50;;;;;;;37.08;7.45;;;20.70;96.40;;;;;;5050055;28;20028;-58
2023/09/14 06:53:16;;;;;;;39.45;6.78;;;20.70;96.40;;;;;;5067844;28;20051;-58
2023/09/14 06:55:42;;;;;;;27.15;6.82;;;20.70;96.40;;;;;;5086301;28;20032;-58
2023/09/14 06:58:08;;;;;;;32.92;7.13;;;20.70;96.40;;;;;;5081950;28;20099;-57
2023/09/14 07:00:35;;;;;;;30.45;7.07;;;20.70;96.40;;;;;;5043023;28;20024;-58
2023/09/14 07:03:02;;;;;;;35.00;6.68;;;20.70;96.50;;;;;;5060657;28;20043;-58
2023/09/14 07:05:29;;;;;;;36.38;8.15;;;20.70;96.50;;;;;;5066241;28;20120;-57
2023/09/14 07:07:55;;;;;;;37.50;7.32;;;20.70;96.50;;;;;;5068783;28;20090;-58
2023/09/14 07:10:20;;;;;;;30.25;7.82;;;20.70;96.50;;;;;;5066605;28;20040;-57
2023/09/14 07:12:46;;;;;;;31.60;8.02;;;20.70;96.50;;;;;;5058772;28;20484;-57
2023/09/14 07:15:11;;;;;;;44.92;8.80;;;20.70;96.50;;;;;;5067845;28;20044;-57
2023/09/14 07:17:37;;;;;;;38.28;8.15;;;20.70;96.50;;;;;;5068065;28;20115;-57
2023/09/14 07:20:04;;;;;;;37.75;8.15;;;20.70;96.60;;;;;;5064522;28;20040;-58
2023/09/14 07:22:30;;;;;;;34.97;7.40;;;20.70;96.40;;;;;;5067817;28;20032;-58
2023/09/14 07:24:56;;;;;;;33.55;8.05;;;20.80;96.30;;;;;;5065900;28;20124;-58
2023/09/14 07:27:22;;;;;;;40.85;9.15;;;20.70;96.30;;;;;;5051361;28;20036;-58
2023/09/14 07:29:48;;;;;;;61.78;9.93;;;20.80;96.40;;;;;;5059475;28;20025;-58
2023/09/14 07:32:14;;;;;;;53.60;9.68;;;20.80;96.30;;;;;;5064746;28;20137;-57
2023/09/14 07:34:39;;;;;;;42.30;8.68;;;20.80;96.30;;;;;;5061310;28;20033;-57
2023/09/14 07:37:05;;;;;;;69.85;11.52;;;20.80;96.30;;;;;;5058101;28;20041;-58
2023/09/14 07:39:30;;;;;;;40.10;8.98;;;20.80;96.30;;;;;;5081856;28;20099;-58
2023/09/14 07:41:56;;;;;;;49.22;10.23;;;20.90;96.30;;;;;;5066156;28;20067;-57
2023/09/14 07:44:22;;;;;;;48.85;8.77;;;20.90;96.10;;;;;;5083623;28;20060;-58
2023/09/14 07:46:48;;;;;;;58.03;9.52;;;20.90;96.10;;;;;;5078733;28;20047;-57
2023/09/14 07:49:13;;;;;;;61.40;9.55;;;21.00;96.10;;;;;;5065252;28;20496;-57
2023/09/14 07:51:39;;;;;;;78.53;10.82;;;20.90;96.20;;;;;;5065688;28;20472;-57
2023/09/14 07:54:05;;;;;;;61.78;10.75;;;21.00;96.30;;;;;;5064687;28;20520;-58
2023/09/14 07:56:30;;;;;;;60.60;9.45;;;21.00;96.20;;;;;;5062079;28;20033;-58
2023/09/14 07:58:56;;;;;;;52.40;9.48;;;21.00;96.20;;;;;;5064751;28;20036;-58
2023/09/14 08:01:22;;;;;;;39.05;9.00;;;21.00;96.00;;;;;;5082380;28;20032;-58
2023/09/14 08:03:48;;;;;;;48.42;9.07;;;21.00;95.90;;;;;;5088531;28;20055;-58
2023/09/14 08:06:15;;;;;;;52.10;9.80;;;21.10;95.80;;;;;;5046387;28;20098;-58
2023/09/14 08:08:40;;;;;;;57.72;10.85;;;21.10;95.70;;;;;;5084573;28;20464;-58
2023/09/14 08:11:06;;;;;;;53.88;10.05;;;21.10;95.60;;;;;;5064958;28;20043;-58
2023/09/14 08:13:32;;;;;;;42.80;7.60;;;21.10;95.70;;;;;;5047783;28;20127;-57
2023/09/14 08:16:02;;;;;;;63.25;9.20;;;21.10;95.80;;;;;;5079150;28;20039;-58
2023/09/14 08:18:28;;;;;;;39.20;7.88;;;21.10;95.80;;;;;;5055105;28;20041;-57
2023/09/14 08:20:53;;;;;;;56.63;8.55;;;21.10;95.80;;;;;;5047558;28;20044;-57
2023/09/14 08:23:20;;;;;;;42.30;8.45;;;21.10;95.80;;;;;;5083765;28;20037;-58
2023/09/14 08:25:46;;;;;;;43.28;8.07;;;21.10;95.80;;;;;;5063246;28;20112;-58
2023/09/14 08:28:19;;;;;;;45.15;8.38;;;21.20;95.80;;;;;;5067760;28;20032;-57
2023/09/14 08:30:44;;;;;;;45.05;8.07;;;21.20;95.80;;;;;;5066967;28;20044;-57
2023/09/14 08:33:13;;;;;;;27.90;8.35;;;21.20;95.80;;;;;;5030992;28;20044;-58
2023/09/14 08:35:39;;;;;;;42.83;8.45;;;21.20;95.80;;;;;;5065894;28;20094;-58
2023/09/14 08:38:05;;;;;;;41.22;8.45;;;21.30;95.70;;;;;;5063154;28;20040;-58
2023/09/14 08:40:31;;;;;;;39.75;7.72;;;21.30;95.80;;;;;;5049806;28;20039;-58
2023/09/14 08:42:57;;;;;;;30.00;7.57;;;21.30;95.80;;;;;;5057005;28;20025;-58
2023/09/14 08:45:23;;;;;;;32.42;7.75;;;21.30;95.70;;;;;;5024994;28;20044;-58
2023/09/14 08:47:51;;;;;;;43.75;7.95;;;21.30;95.80;;;;;;5077591;28;20064;-58
2023/09/14 08:50:22;;;;;;;35.78;7.85;;;21.30;95.80;;;;;;5068490;28;20040;-57
2023/09/14 08:52:48;;;;;;;30.50;6.25;;;21.30;95.80;;;;;;5063007;28;20443;-58
2023/09/14 08:55:13;;;;;;;25.98;5.80;;;21.40;95.80;;;;;;5064200;28;20079;-58
2023/09/14 08:57:40;;;;;;;35.53;7.45;;;21.30;95.70;;;;;;5048984;28;20040;-58
2023/09/14 09:00:15;;;;;;;27.33;6.97;;;21.40;95.70;;;;;;5035931;28;20040;-58
2023/09/14 09:02:42;;;;;;;29.70;7.00;;;21.40;95.60;;;;;;5066530;28;20414;-58
2023/09/14 09:05:09;;;;;;;23.55;5.80;;;21.40;95.50;;;;;;5070799;28;20028;-58
2023/09/14 09:07:34;;;;;;;21.48;6.25;;;21.40;95.30;;;;;;5062556;28;20047;-57
2023/09/14 09:10:00;;;;;;;29.60;6.28;;;21.50;95.30;;;;;;5045092;28;20086;-58
2023/09/14 09:12:25;;;;;;;28.08;7.00;;;21.40;95.20;;;;;;5046387;28;20047;-57
2023/09/14 09:14:51;;;;;;;118.95;14.45;;;21.50;95.20;;;;;;5074682;28;20039;-57
2023/09/14 09:17:16;;;;;;;35.65;7.95;;;21.60;95.10;;;;;;5047679;28;20048;-58
2023/09/14 09:19:47;;;;;;;40.67;8.52;;;21.60;95.00;;;;;;5071583;28;20044;-57
2023/09/14 09:22:14;;;;;;;40.95;7.65;;;21.60;95.00;;;;;;5041899;28;20033;-57
2023/09/14 09:24:39;;;;;;;45.00;7.05;;;21.60;94.90;;;;;;5057374;28;20093;-58
2023/09/14 09:27:24;;;;;;;40.00;7.75;;;21.60;94.90;;;;;;5029845;28;20059;-57
2023/09/14 09:29:59;;;;;;;49.30;8.05;;;21.70;94.90;;;;;;5057000;28;20079;-58
2023/09/14 09:32:24;;;;;;;;;;;21.60;94.80;;;;;;5063335;28;20036;-57
2023/09/14 09:34:50;;;;;;;36.03;8.25;;;21.70;94.90;;;;;;5085338;28;20261;-58
2023/09/14 09:37:16;;;;;;;43.50;7.72;;;21.70;94.90;;;;;;5067072;28;20060;-58
2023/09/14 09:39:43;;;;;;;40.55;7.45;;;21.70;95.00;;;;;;5049767;28;20044;-57
2023/09/14 09:42:12;;;;;;;39.95;7.93;;;21.70;94.80;;;;;;5053714;28;20096;-57
2023/09/14 09:44:38;;;;;;;30.13;7.25;;;21.70;94.80;;;;;;5068117;28;20063;-57
2023/09/14 09:47:04;;;;;;;49.55;8.85;;;21.70;94.80;;;;;;5057671;28;20045;-57
2023/09/14 09:49:30;;;;;;;45.28;8.35;;;21.70;94.90;;;;;;5045750;28;20045;-57
2023/09/14 09:51:57;;;;;;;45.10;8.27;;;21.70;94.90;;;;;;5049044;28;20025;-57
2023/09/14 09:54:24;;;;;;;36.60;8.13;;;21.70;95.00;;;;;;5067017;28;20108;-58
2023/09/14 09:56:51;;;;;;;46.28;8.50;;;21.70;95.00;;;;;;5067591;28;20472;-57
2023/09/14 09:59:16;;;;;;;43.88;8.38;;;21.80;95.00;;;;;;5069435;28;20062;-58
2023/09/14 10:01:47;;;;;;;43.25;9.57;;;21.80;94.90;;;;;;5073453;28;20070;-58
2023/09/14 10:04:13;;;;;;;36.53;7.80;;;21.80;94.80;;;;;;5060712;28;20049;-57
2023/09/14 10:06:40;;;;;;;32.90;8.02;;;21.80;94.80;;;;;;5047869;28;20402;-57
2023/09/14 10:09:10;;;;;;;60.45;10.88;;;21.90;94.90;;;;;;5086555;28;20051;-58
2023/09/14 10:11:36;;;;;;;45.85;9.55;;;21.90;95.00;;;;;;5053914;28;20033;-58
2023/09/14 10:14:04;;;;;;;52.13;10.20;;;21.90;94.80;;;;;;5037305;28;20040;-58
2023/09/14 10:16:43;;;;;;;46.88;9.50;;;22.00;94.50;;;;;;5068703;28;20048;-58
2023/09/14 10:19:08;;;;;;;50.05;10.55;;;22.00;94.40;;;;;;5068169;28;20040;-58
2023/09/14 10:21:35;;;;;;;52.58;9.88;;;22.00;94.30;;;;;;5066540;28;20040;-58
2023/09/14 10:24:05;;;;;;;48.47;9.48;;;22.10;94.20;;;;;;5056771;28;20037;-57
2023/09/14 10:26:31;;;;;;;65.97;10.27;;;22.10;94.00;;;;;;5051917;28;20035;-57
2023/09/14 10:28:56;;;;;;;58.42;9.98;;;22.10;93.90;;;;;;5061104;28;20510;-57
2023/09/14 10:31:22;;;;;;;64.70;10.50;;;22.20;94.00;;;;;;5088195;28;20036;-58
2023/09/14 10:33:49;;;;;;;58.80;11.07;;;22.20;94.00;;;;;;5088306;28;20040;-58
2023/09/14 10:36:15;;;;;;;67.85;11.73;;;22.20;94.10;;;;;;5069662;28;20099;-58
2023/09/14 10:38:43;;;;;;;68.43;10.48;;;22.30;94.00;;;;;;5043265;28;20040;-58
2023/09/14 10:41:08;;;;;;;78.20;13.00;;;22.30;94.00;;;;;;5088059;28;20080;-58
2023/09/14 10:43:34;;;;;;;97.57;13.40;;;22.40;93.90;;;;;;5079585;28;20044;-57
2023/09/14 10:46:00;;;;;;;69.32;10.73;;;22.40;93.80;;;;;;5067685;28;20051;-58
2023/09/14 10:48:29;;;;;;;61.13;11.52;;;22.50;93.60;;;;;;5053375;28;20071;-57
2023/09/14 10:50:58;;;;;;;56.92;9.57;;;22.50;93.20;;;;;;5071903;28;20041;-58
2023/09/14 10:53:24;;;;;;;53.83;9.25;;;22.50;92.90;;;;;;5037991;28;20100;-58
2023/09/14 10:55:49;;;;;;;52.22;8.13;;;22.40;92.70;;;;;;5086154;28;20032;-58
2023/09/14 10:58:18;;;;;;;26.48;7.43;;;22.40;92.50;;;;;;5053303;28;20480;-58
2023/09/14 11:00:43;;;;;;;39.33;7.35;;;22.40;92.30;;;;;;5066820;28;20128;-57
2023/09/14 11:03:09;;;;;;;38.25;7.55;;;22.40;92.30;;;;;;5064818;28;20028;-58
2023/09/14 11:05:46;;;;;;;36.75;7.78;;;22.30;92.30;;;;;;5072106;28;20024;-57
2023/09/14 11:08:12;;;;;;;29.98;6.47;;;22.30;92.20;;;;;;5054481;28;20049;-57
2023/09/14 11:10:38;;;;;;;15.40;5.80;;;22.30;92.20;;;;;;5085660;28;20047;-57
2023/09/14 11:13:19;;;;;;;11.50;5.95;;;22.30;92.10;;;;;;5068740;28;20101;-57
2023/09/14 11:15:53;;;;;;;10.30;5.35;;;22.30;92.00;;;;;;5087600;28;20128;-57
2023/09/14 11:18:19;;;;;;;21.58;5.28;;;22.30;91.90;;;;;;5072486;28;20121;-55
2023/09/14 11:20:46;;;;;;;13.00;4.80;;;22.30;91.60;;;;;;5053296;28;20416;-56
2023/09/14 11:23:11;;;;;;;9.80;4.38;;;22.30;91.20;;;;;;5068782;28;20040;-57
2023/09/14 11:25:41;;;;;;;19.60;5.50;;;22.30;91.20;;;;;;5049374;28;20044;-56
2023/09/14 11:28:20;;;;;;;36.88;7.07;;;22.30;91.20;;;;;;5060616;28;20048;-58
2023/09/14 11:30:49;;;;;;;11.57;4.97;;;22.30;91.20;;;;;;5045960;28;20041;-57
2023/09/14 11:33:15;;;;;;;11.70;4.38;;;22.30;91.30;;;;;;5063867;28;20186;-57
2023/09/14 11:35:47;;;;;;;11.55;4.68;;;22.30;91.70;;;;;;5086105;28;20036;-56
2023/09/14 11:38:17;;;;;;;11.00;4.88;;;22.30;91.40;;;;;;5051766;28;20071;-57
2023/09/14 11:40:43;;;;;;;12.32;5.00;;;22.40;91.30;;;;;;5071157;28;20041;-57
2023/09/14 11:43:26;;;;;;;19.30;5.35;;;22.40;91.30;;;;;;5063542;28;20056;-57
2023/09/14 11:45:56;;;;;;;20.58;6.15;;;22.40;91.20;;;;;;5085342;28;20081;-56
2023/09/14 11:48:23;;;;;;;17.45;5.32;;;22.30;91.20;;;;;;5064136;28;20047;-57
2023/09/14 11:50:48;;;;;;;15.50;5.72;;;22.30;91.20;;;;;;5067890;28;20051;-57
2023/09/14 11:53:19;;;;;;;15.52;5.30;;;22.40;91.20;;;;;;5063437;28;20565;-57
2023/09/14 11:55:48;;;;;;;14.07;5.70;;;22.40;91.10;;;;;;5067040;28;20048;-57
2023/09/14 11:58:14;;;;;;;20.52;5.88;;;22.40;91.10;;;;;;5064046;28;20044;-55
2023/09/14 12:00:41;;;;;;;17.30;6.53;;;22.50;91.10;;;;;;5067058;28;20040;-56
2023/09/14 12:03:07;;;;;;;29.40;7.25;;;22.50;91.20;;;;;;5050564;28;20132;-58
2023/09/14 12:05:33;;;;;;;27.05;7.45;;;22.50;91.30;;;;;;5085203;28;20086;-57
2023/09/14 12:08:06;;;;;;;27.73;7.65;;;22.50;91.30;;;;;;5050108;28;20036;-56
2023/09/14 12:10:32;;;;;;;25.13;7.85;;;22.50;91.30;;;;;;5067067;28;20041;-57
2023/09/14 12:13:07;;;;;;;25.42;7.57;;;22.60;91.40;;;;;;5079630;28;20059;-57
2023/09/14 12:15:33;;;;;;;27.27;7.22;;;22.60;91.30;;;;;;5081493;28;20044;-57
2023/09/14 12:17:58;;;;;;;48.13;8.45;;;22.70;91.30;;;;;;5081336;28;20033;-57
2023/09/14 12:20:24;;;;;;;57.35;10.82;;;22.70;91.30;;;;;;5067066;28;20036;-57
2023/09/14 12:22:49;;;;;;;42.83;8.82;;;22.70;91.20;;;;;;5061272;28;20031;-57
2023/09/14 12:25:16;;;;;;;40.22;9.55;;;22.70;91.20;;;;;;5064913;28;20033;-57
2023/09/14 12:27:42;;;;;;;31.38;8.65;;;22.70;91.10;;;;;;5046360;28;20029;-57
2023/09/14 12:30:09;;;;;;;53.08;9.75;;;22.70;90.90;;;;;;5046673;28;20116;-57
2023/09/14 12:32:35;;;;;;;35.78;8.43;;;22.70;90.90;;;;;;5064650;28;20047;-57
2023/09/14 12:35:05;;;;;;;46.45;9.65;;;22.80;90.30;;;;;;5052533;28;20033;-57
2023/09/14 12:37:30;;;;;;;27.27;7.43;;;22.80;90.30;;;;;;5034958;28;20033;-57